Time;durP1;ratioP1;P1;durP2;ratioP2;P2;SDS_P1;SDS_P2;PMS_P1;PMS_P2;Temp;Humidity;BMP_temperature;BMP_pressure;BME280_temperature;BME280_humidity;BME280_pressure;Samples;Min_cycle;Max_cycle;Signal;HPM_P1;HPM_P2
2023/03/20 00:01:58;;;;;;;;;;;;;;;;;;4996629;28;19980;-26
2023/03/20 00:04:24;;;;;;;;;;;;;;;;;;4996547;28;19922;-30
2023/03/20 00:06:50;;;;;;;;;;;;;;;;;;4996332;28;19910;-29
2023/03/20 00:09:16;;;;;;;;;;;;;;;;;;4996326;28;19976;-30
2023/03/20 00:11:42;;;;;;;;;;;;;;;;;;4996244;28;20020;-24
2023/03/20 00:14:08;;;;;;;;;;;;;;;;;;4996355;28;19937;-24
2023/03/20 00:16:34;;;;;;;;;;;;;;;;;;4996141;28;19914;-33
2023/03/20 00:19:02;;;;;;;;;;;;;;;;;;4996007;28;19914;-26
2023/03/20 00:21:28;;;;;;;;;;;;;;;;;;4978853;28;19914;-24
2023/03/20 00:23:54;;;;;;;;;;;;;;;;;;4995980;28;20266;-26
2023/03/20 00:26:20;;;;;;;;;;;;;;;;;;4995933;28;19917;-31
2023/03/20 00:28:46;;;;;;;;;;;;;;;;;;4995860;28;20029;-26
2023/03/20 00:31:12;;;;;;;;;;;;;;;;;;4996510;28;20222;-27
2023/03/20 00:33:38;;;;;;;;;;;;;;;;;;4995813;28;19910;-24
2023/03/20 00:36:05;;;;;;;;;;;;;;;;;;4995839;28;19968;-29
2023/03/20 00:38:31;;;;;;;;;;;;;;;;;;4995824;28;19914;-27
2023/03/20 00:40:57;;;;;;;;;;;;;;;;;;4995777;28;19910;-28
2023/03/20 00:43:23;;;;;;;;;;;;;;;;;;4995573;28;19924;-28
2023/03/20 00:45:49;;;;;;;;;;;;;;;;;;4995910;28;19972;-28
2023/03/20 00:48:15;;;;;;;;;;;;;;;;;;4995816;28;20311;-26
2023/03/20 00:50:41;;;;;;;;;;;;;;;;;;4995833;28;19910;-25
2023/03/20 00:53:07;;;;;;;;;;;;;;;;;;4995484;28;19914;-27
2023/03/20 00:55:33;;;;;;;;;;;;;;;;;;4995530;28;19917;-26
2023/03/20 00:57:59;;;;;;;;;;;;;;;;;;4995707;28;19997;-28
2023/03/20 01:00:26;;;;;;;;;;;;;;;;;;4995364;28;19921;-27
2023/03/20 01:02:52;;;;;;;;;;;;;;;;;;4995578;28;19920;-26
2023/03/20 01:05:18;;;;;;;;;;;;;;;;;;4995142;28;19924;-27
2023/03/20 01:07:44;;;;;;;;;;;;;;;;;;4994937;28;19929;-28
2023/03/20 01:10:11;;;;;;;;;;;;;;;;;;4995497;28;19910;-24
2023/03/20 01:12:37;;;;;;;;;;;;;;;;;;4995132;28;20292;-27
2023/03/20 01:15:03;;;;;;;;;;;;;;;;;;4995201;28;19949;-26
2023/03/20 01:17:29;;;;;;;;;;;;;;;;;;4995485;28;19923;-25
2023/03/20 01:19:55;;;;;;;;;;;;;;;;;;4995167;28;19936;-33
2023/03/20 01:22:21;;;;;;;;;;;;;;;;;;4995114;28;19996;-29
2023/03/20 01:24:47;;;;;;;;;;;;;;;;;;4995380;28;20029;-25
2023/03/20 01:27:13;;;;;;;;;;;;;;;;;;4995474;28;19957;-25
2023/03/20 01:29:39;;;;;;;;;;;;;;;;;;4995045;28;19937;-26
2023/03/20 01:32:05;;;;;;;;;;;;;;;;;;4994869;28;19910;-27
2023/03/20 01:34:31;;;;;;;;;;;;;;;;;;4977793;28;19921;-26
2023/03/20 01:36:57;;;;;;;;;;;;;;;;;;4977748;28;19957;-23
2023/03/20 01:39:23;;;;;;;;;;;;;;;;;;4995176;28;19917;-27
2023/03/20 01:41:49;;;;;;;;;;;;;;;;;;4994882;28;19910;-26
2023/03/20 01:44:15;;;;;;;;;;;;;;;;;;4995153;28;20011;-30
2023/03/20 01:46:42;;;;;;;;;;;;;;;;;;4995126;28;20264;-28
2023/03/20 01:49:08;;;;;;;;;;;;;;;;;;4995076;28;20269;-26
2023/03/20 01:51:36;;;;;;;;;;;;;;;;;;4994775;28;19910;-26
2023/03/20 01:54:02;;;;;;;;;;;;;;;;;;4995013;28;19925;-29
2023/03/20 01:56:28;;;;;;;;;;;;;;;;;;4995092;28;19914;-24
2023/03/20 01:58:54;;;;;;;;;;;;;;;;;;4994821;28;20298;-27
2023/03/20 02:01:20;;;;;;;;;;;;;;;;;;4994781;28;19975;-27
2023/03/20 02:03:46;;;;;;;;;;;;;;;;;;4994694;28;19925;-28
2023/03/20 02:06:12;;;;;;;;;;;;;;;;;;4994696;28;19921;-28
2023/03/20 02:08:38;;;;;;;;;;;;;;;;;;4994714;28;19918;-26
2023/03/20 02:11:04;;;;;;;;;;;;;;;;;;4994722;28;19910;-26
2023/03/20 02:13:30;;;;;;;;;;;;;;;;;;4994852;28;20020;-27
2023/03/20 02:15:56;;;;;;;;;;;;;;;;;;4977540;28;19910;-24
2023/03/20 02:18:22;;;;;;;;;;;;;;;;;;4995168;28;20402;-26
2023/03/20 02:20:48;;;;;;;;;;;;;;;;;;4998325;28;20008;-25
2023/03/20 02:23:14;;;;;;;;;;;;;;;;;;4998467;28;19914;-24
2023/03/20 02:25:40;;;;;;;;;;;;;;;;;;4998532;28;20233;-24
2023/03/20 02:28:05;;;;;;;;;;;;;;;;;;4998420;28;20005;-27
2023/03/20 02:30:31;;;;;;;;;;;;;;;;;;4998132;28;20292;-27
2023/03/20 02:32:57;;;;;;;;;;;;;;;;;;4998070;28;19917;-26
2023/03/20 02:35:24;;;;;;;;;;;;;;;;;;4998139;28;19910;-30
2023/03/20 02:37:50;;;;;;;;;;;;;;;;;;4998347;28;19909;-27
2023/03/20 02:40:16;;;;;;;;;;;;;;;;;;4998038;28;19917;-28
2023/03/20 02:42:42;;;;;;;;;;;;;;;;;;4998133;28;20305;-26
2023/03/20 02:45:08;;;;;;;;;;;;;;;;;;4997908;28;20341;-26
2023/03/20 02:47:34;;;;;;;;;;;;;;;;;;4998092;28;19936;-24
2023/03/20 02:50:00;;;;;;;;;;;;;;;;;;4998105;28;20254;-28
2023/03/20 02:52:26;;;;;;;;;;;;;;;;;;4997736;28;19909;-29
2023/03/20 02:54:52;;;;;;;;;;;;;;;;;;4997842;28;19913;-29
2023/03/20 02:57:19;;;;;;;;;;;;;;;;;;4998050;28;20013;-27
2023/03/20 02:59:45;;;;;;;;;;;;;;;;;;4997774;28;19942;-26
2023/03/20 03:02:11;;;;;;;;;;;;;;;;;;4997690;28;19910;-28
2023/03/20 03:04:37;;;;;;;;;;;;;;;;;;4997510;28;19918;-30
2023/03/20 03:07:03;;;;;;;;;;;;;;;;;;4997825;28;19921;-24
2023/03/20 03:09:30;;;;;;;;;;;;;;;;;;4997591;28;19910;-27
2023/03/20 03:11:56;;;;;;;;;;;;;;;;;;4998080;28;19949;-27
2023/03/20 03:14:22;;;;;;;;;;;;;;;;;;4997748;28;20365;-26
2023/03/20 03:16:48;;;;;;;;;;;;;;;;;;4997744;28;20298;-29
2023/03/20 03:19:14;;;;;;;;;;;;;;;;;;4997474;28;19949;-28
2023/03/20 03:21:40;;;;;;;;;;;;;;;;;;4997689;28;19910;-28
2023/03/20 03:24:06;;;;;;;;;;;;;;;;;;4997236;28;19914;-24
2023/03/20 03:26:32;;;;;;;;;;;;;;;;;;4997285;28;20004;-30
2023/03/20 03:28:58;;;;;;;;;;;;;;;;;;4996999;28;19914;-29
2023/03/20 03:31:24;;;;;;;;;;;;;;;;;;4997171;28;19910;-28
2023/03/20 03:33:50;;;;;;;;;;;;;;;;;;4997319;28;20012;-27
2023/03/20 03:36:16;;;;;;;;;;;;;;;;;;4997043;28;19964;-28
2023/03/20 03:38:43;;;;;;;;;;;;;;;;;;4997031;28;19968;-26
2023/03/20 03:41:09;;;;;;;;;;;;;;;;;;4996998;28;20337;-26
2023/03/20 03:43:35;;;;;;;;;;;;;;;;;;4997167;28;19910;-31
2023/03/20 03:46:01;;;;;;;;;;;;;;;;;;4996904;28;20374;-24
2023/03/20 03:48:27;;;;;;;;;;;;;;;;;;4996873;28;20047;-27
2023/03/20 03:50:53;;;;;;;;;;;;;;;;;;4997105;28;19917;-27
2023/03/20 03:53:19;;;;;;;;;;;;;;;;;;4996849;28;20227;-30
2023/03/20 03:55:45;;;;;;;;;;;;;;;;;;4996750;28;20260;-26
2023/03/20 03:58:11;;;;;;;;;;;;;;;;;;4996721;28;20261;-32
2023/03/20 04:00:37;;;;;;;;;;;;;;;;;;4996607;28;19909;-24
2023/03/20 04:03:03;;;;;;;;;;;;;;;;;;4996717;28;19914;-28
2023/03/20 04:05:30;;;;;;;;;;;;;;;;;;4996387;28;19922;-27
2023/03/20 04:07:56;;;;;;;;;;;;;;;;;;4996390;28;19918;-26
2023/03/20 04:10:22;;;;;;;;;;;;;;;;;;4996688;28;19914;-31
2023/03/20 04:12:48;;;;;;;;;;;;;;;;;;4996340;28;19957;-26
2023/03/20 04:15:14;;;;;;;;;;;;;;;;;;4996375;28;19996;-24
2023/03/20 04:17:40;;;;;;;;;;;;;;;;;;4996568;28;19909;-25
2023/03/20 04:20:07;;;;;;;;;;;;;;;;;;4996298;28;19909;-28
2023/03/20 04:22:33;;;;;;;;;;;;;;;;;;4996410;28;19984;-30
2023/03/20 04:24:59;;;;;;;;;;;;;;;;;;4996219;28;19909;-24
2023/03/20 04:27:25;;;;;;;;;;;;;;;;;;4996316;28;19914;-27
2023/03/20 04:29:51;;;;;;;;;;;;;;;;;;4996120;28;19960;-29
2023/03/20 04:32:17;;;;;;;;;;;;;;;;;;4995982;28;20304;-24
2023/03/20 04:34:43;;;;;;;;;;;;;;;;;;4996072;28;19910;-25
2023/03/20 04:37:09;;;;;;;;;;;;;;;;;;4996146;28;19910;-30
2023/03/20 04:39:36;;;;;;;;;;;;;;;;;;4978711;28;19949;-25
2023/03/20 04:42:02;;;;;;;;;;;;;;;;;;4995246;28;20006;-28
2023/03/20 04:44:28;;;;;;;;;;;;;;;;;;4995805;28;20353;-33
2023/03/20 04:46:54;;;;;;;;;;;;;;;;;;4995907;28;20305;-31
2023/03/20 04:49:20;;;;;;;;;;;;;;;;;;4995591;28;19993;-28
2023/03/20 04:51:46;;;;;;;;;;;;;;;;;;4995598;28;19910;-27
2023/03/20 04:54:11;;;;;;;;;;;;;;;;;;4995440;28;19917;-26
2023/03/20 04:56:37;;;;;;;;;;;;;;;;;;4995489;28;19999;-26
2023/03/20 04:59:04;;;;;;;;;;;;;;;;;;4995471;28;19910;-26
2023/03/20 05:04:05;;;;;;;;;;;;;;;;;;5010766;22;19968;-23
2023/03/20 05:06:31;;;;;;;;;;;;;;;;;;4995692;28;19989;-22
2023/03/20 05:08:58;;;;;;;;;;;;;;;;;;4978079;28;20016;-23
2023/03/20 05:11:24;;;;;;;;;;;;;;;;;;4995201;28;19909;-21
2023/03/20 05:13:50;;;;;;;;;;;;;;;;;;4995147;28;19996;-22
2023/03/20 05:16:16;;;;;;;;;;;;;;;;;;4995708;28;19910;-22
2023/03/20 05:18:42;;;;;;;;;;;;;;;;;;4995952;28;20388;-21
2023/03/20 05:21:08;;;;;;;;;;;;;;;;;;4995632;28;20245;-22
2023/03/20 05:23:34;;;;;;;;;;;;;;;;;;4995251;28;19914;-22
2023/03/20 05:26:00;;;;;;;;;;;;;;;;;;4995219;28;19910;-22
2023/03/20 05:28:26;;;;;;;;;;;;;;;;;;4995116;28;19921;-22
2023/03/20 05:30:52;;;;;;;;;;;;;;;;;;4995195;28;19909;-22
2023/03/20 05:33:18;;;;;;;;;;;;;;;;;;4995084;28;19914;-22
2023/03/20 05:35:44;;;;;;;;;;;;;;;;;;4995381;28;19910;-21
2023/03/20 05:38:10;;;;;;;;;;;;;;;;;;4995086;28;20008;-22
2023/03/20 05:40:36;;;;;;;;;;;;;;;;;;4995175;28;19921;-21
2023/03/20 05:43:02;;;;;;;;;;;;;;;;;;4995016;28;19996;-22
2023/03/20 05:45:28;;;;;;;;;;;;;;;;;;4978769;28;19910;-22
2023/03/20 05:47:54;;;;;;;;;;;;;;;;;;4995282;28;19984;-22
2023/03/20 05:50:20;;;;;;;;;;;;;;;;;;4995298;28;19910;-22
2023/03/20 05:52:46;;;;;;;;;;;;;;;;;;4996194;28;19909;-22
2023/03/20 05:55:12;;;;;;;;;;;;;;;;;;4999131;28;19920;-22
2023/03/20 05:57:38;;;;;;;;;;;;;;;;;;4999567;28;20017;-22
2023/03/20 06:00:04;;;;;;;;;;;;;;;;;;4999437;28;20305;-22
2023/03/20 06:02:30;;;;;;;;;;;;;;;;;;4998344;28;19910;-23
2023/03/20 06:04:56;;;;;;;;;;;;;;;;;;4999069;28;19935;-22
2023/03/20 06:07:22;;;;;;;;;;;;;;;;;;4998757;28;20042;-22
2023/03/20 06:09:48;;;;;;;;;;;;;;;;;;4999624;28;19917;-22
2023/03/20 06:12:15;;;;;;;;;;;;;;;;;;4981778;28;19921;-22
2023/03/20 06:14:41;;;;;;;;;;;;;;;;;;4998471;28;19910;-22
2023/03/20 06:17:07;;;;;;;;;;;;;;;;;;4998250;28;19910;-22
2023/03/20 06:19:33;;;;;;;;;;;;;;;;;;4998492;28;20029;-22
2023/03/20 06:21:59;;;;;;;;;;;;;;;;;;4998804;28;19920;-22
2023/03/20 06:24:25;;;;;;;;;;;;;;;;;;4998276;28;19942;-22
2023/03/20 06:26:51;;;;;;;;;;;;;;;;;;4998199;28;19918;-22
2023/03/20 06:29:17;;;;;;;;;;;;;;;;;;4980895;28;19965;-22
2023/03/20 06:31:42;;;;;;;;;;;;;;;;;;4998184;28;20296;-22
2023/03/20 06:34:08;;;;;;;;;;;;;;;;;;4980899;28;19937;-22
2023/03/20 06:36:35;;;;;;;;;;;;;;;;;;4980757;28;20316;-22
2023/03/20 06:39:02;;;;;;;;;;;;;;;;;;4980697;28;19921;-22
2023/03/20 06:41:28;;;;;;;;;;;;;;;;;;4980723;28;19910;-23
2023/03/20 06:43:54;;;;;;;;;;;;;;;;;;4980718;28;19953;-22
2023/03/20 06:46:20;;;;;;;;;;;;;;;;;;4997773;28;19909;-23
2023/03/20 06:48:47;;;;;;;;;;;;;;;;;;4997841;28;19924;-22
2023/03/20 06:51:13;;;;;;;;;;;;;;;;;;4997787;28;19918;-22
2023/03/20 06:53:40;;;;;;;;;;;;;;;;;;4997811;28;19910;-21
2023/03/20 06:56:06;;;;;;;;;;;;;;;;;;4997667;28;19910;-23
2023/03/20 06:58:32;;;;;;;;;;;;;;;;;;4997836;28;20362;-23
2023/03/20 07:00:58;;;;;;;;;;;;;;;;;;4997442;28;20256;-22
2023/03/20 07:03:24;;;;;;;;;;;;;;;;;;4997194;28;20289;-23
2023/03/20 07:05:50;;;;;;;;;;;;;;;;;;4996830;28;20355;-23
2023/03/20 07:08:16;;;;;;;;;;;;;;;;;;4997429;28;19921;-23
2023/03/20 07:10:42;;;;;;;;;;;;;;;;;;4997784;28;19924;-23
2023/03/20 07:13:09;;;;;;;;;;;;;;;;;;4997073;28;19917;-23
2023/03/20 07:15:35;;;;;;;;;;;;;;;;;;4996600;28;19910;-22
2023/03/20 07:18:01;;;;;;;;;;;;;;;;;;4978962;28;19921;-23
2023/03/20 07:20:27;;;;;;;;;;;;;;;;;;4996823;28;19917;-23
2023/03/20 07:22:54;;;;;;;;;;;;;;;;;;4996674;28;19917;-24
2023/03/20 07:25:20;;;;;;;;;;;;;;;;;;4979208;28;19920;-22
2023/03/20 07:27:49;;;;;;;;;;;;;;;;;;4979015;28;19913;-22
2023/03/20 07:30:15;;;;;;;;;;;;;;;;;;4996184;28;19920;-23
2023/03/20 07:32:41;;;;;;;;;;;;;;;;;;4996358;28;19930;-22
2023/03/20 07:35:08;;;;;;;;;;;;;;;;;;4978994;28;19936;-23
2023/03/20 07:37:34;;;;;;;;;;;;;;;;;;4996514;28;20000;-23
2023/03/20 07:40:00;;;;;;;;;;;;;;;;;;4997059;28;19909;-23
2023/03/20 07:42:26;;;;;;;;;;;;;;;;;;4996551;28;19917;-22
2023/03/20 07:44:52;;;;;;;;;;;;;;;;;;4996813;28;19932;-23
2023/03/20 07:47:17;;;;;;;;;;;;;;;;;;4996336;28;19909;-23
2023/03/20 07:49:45;;;;;;;;;;;;;;;;;;4996774;28;19996;-23
2023/03/20 07:52:11;;;;;;;;;;;;;;;;;;4996869;28;20237;-23
2023/03/20 07:54:37;;;;;;;;;;;;;;;;;;4997167;28;19909;-23
2023/03/20 07:57:04;;;;;;;;;;;;;;;;;;4996585;28;19914;-23
2023/03/20 07:59:30;;;;;;;;;;;;;;;;;;4996756;28;19956;-22
2023/03/20 08:01:56;;;;;;;;;;;;;;;;;;4996457;28;20252;-23
2023/03/20 08:04:22;;;;;;;;;;;;;;;;;;4996510;28;19965;-23
2023/03/20 08:06:48;;;;;;;;;;;;;;;;;;4996724;28;19910;-23
2023/03/20 08:09:14;;;;;;;;;;;;;;;;;;4996447;28;19914;-23
2023/03/20 08:11:40;;;;;;;;;;;;;;;;;;4979111;28;19909;-23
2023/03/20 08:14:06;;;;;;;;;;;;;;;;;;4996593;28;19910;-22
2023/03/20 08:16:32;;;;;;;;;;;;;;;;;;4996419;28;19986;-23
2023/03/20 08:19:00;;;;;;;;;;;;;;;;;;4995995;28;20317;-23
2023/03/20 08:21:26;;;;;;;;;;;;;;;;;;4996124;28;20335;-22
2023/03/20 08:23:52;;;;;;;;;;;;;;;;;;4996260;28;19909;-23
2023/03/20 08:26:18;;;;;;;;;;;;;;;;;;4996033;28;19910;-23
2023/03/20 08:28:44;;;;;;;;;;;;;;;;;;4978809;28;20230;-23
2023/03/20 08:31:10;;;;;;;;;;;;;;;;;;4996355;28;19910;-22
2023/03/20 08:33:35;;;;;;;;;;;;;;;;;;4978566;28;19910;-23
2023/03/20 08:36:02;;;;;;;;;;;;;;;;;;4995937;28;20337;-23
2023/03/20 08:38:27;;;;;;;;;;;;;;;;;;4995820;28;19910;-23
2023/03/20 08:40:53;;;;;;;;;;;;;;;;;;4995812;28;19914;-23
2023/03/20 08:43:19;;;;;;;;;;;;;;;;;;4978465;28;19920;-23
2023/03/20 08:45:45;;;;;;;;;;;;;;;;;;4995641;28;19983;-23
2023/03/20 08:48:11;;;;;;;;;;;;;;;;;;4995688;28;19921;-23
2023/03/20 08:50:37;;;;;;;;;;;;;;;;;;4995544;28;19948;-23
2023/03/20 08:53:04;;;;;;;;;;;;;;;;;;4995597;28;19924;-23
2023/03/20 08:55:30;;;;;;;;;;;;;;;;;;4978312;28;19909;-23
2023/03/20 08:57:56;;;;;;;;;;;;;;;;;;4995635;28;19916;-23
2023/03/20 09:00:22;;;;;;;;;;;;;;;;;;4995623;28;19921;-22
2023/03/20 09:02:48;;;;;;;;;;;;;;;;;;4995543;28;19925;-22
2023/03/20 09:05:14;;;;;;;;;;;;;;;;;;4978341;28;19910;-23
2023/03/20 09:07:40;;;;;;;;;;;;;;;;;;4995421;28;19950;-23
2023/03/20 09:10:06;;;;;;;;;;;;;;;;;;4995461;28;19939;-23
2023/03/20 09:12:32;;;;;;;;;;;;;;;;;;4995311;28;19937;-23
2023/03/20 09:14:58;;;;;;;;;;;;;;;;;;4995504;28;19974;-23
2023/03/20 09:17:25;;;;;;;;;;;;;;;;;;4977964;28;19993;-23
2023/03/20 09:19:51;;;;;;;;;;;;;;;;;;4995151;28;19932;-23
2023/03/20 09:22:17;;;;;;;;;;;;;;;;;;4994865;28;20337;-23
2023/03/20 09:24:43;;;;;;;;;;;;;;;;;;4995219;28;19914;-23
2023/03/20 09:27:09;;;;;;;;;;;;;;;;;;4994432;28;20295;-23
2023/03/20 09:29:34;;;;;;;;;;;;;;;;;;4994981;28;19920;-23
2023/03/20 09:32:01;;;;;;;;;;;;;;;;;;4977890;28;19910;-23
2023/03/20 09:34:28;;;;;;;;;;;;;;;;;;4995282;28;20055;-23
2023/03/20 09:36:54;;;;;;;;;;;;;;;;;;4995086;28;19914;-23
2023/03/20 09:39:20;;;;;;;;;;;;;;;;;;4995274;28;19917;-23
2023/03/20 09:41:46;;;;;;;;;;;;;;;;;;4994826;28;19910;-23
2023/03/20 09:44:12;;;;;;;;;;;;;;;;;;4994701;28;19909;-23
2023/03/20 09:46:38;;;;;;;;;;;;;;;;;;4994325;28;19909;-23
2023/03/20 09:49:04;;;;;;;;;;;;;;;;;;4994278;28;20009;-23
2023/03/20 09:51:30;;;;;;;;;;;;;;;;;;4994338;28;20294;-23
2023/03/20 09:53:56;;;;;;;;;;;;;;;;;;4994321;28;20383;-21
2023/03/20 09:56:22;;;;;;;;;;;;;;;;;;4994731;28;19956;-21
2023/03/20 09:58:48;;;;;;;;;;;;;;;;;;4994479;28;19953;-21
2023/03/20 10:01:14;;;;;;;;;;;;;;;;;;4994490;28;20256;-21
2023/03/20 10:03:40;;;;;;;;;;;;;;;;;;4993913;28;19922;-21
2023/03/20 10:06:07;;;;;;;;;;;;;;;;;;4994156;28;20059;-22
2023/03/20 10:08:33;;;;;;;;;;;;;;;;;;4976862;28;19918;-21
2023/03/20 10:10:59;;;;;;;;;;;;;;;;;;4994430;28;19920;-21
2023/03/20 10:13:25;;;;;;;;;;;;;;;;;;4994116;28;19917;-21
2023/03/20 10:15:51;;;;;;;;;;;;;;;;;;4976930;28;20282;-22
2023/03/20 10:18:17;;;;;;;;;;;;;;;;;;4994042;28;19909;-22
2023/03/20 10:20:43;;;;;;;;;;;;;;;;;;4994130;28;19972;-21
2023/03/20 10:23:09;;;;;;;;;;;;;;;;;;4994264;28;20352;-22
2023/03/20 10:25:36;;;;;;;;;;;;;;;;;;4994692;28;19917;-22
2023/03/20 10:28:03;;;;;;;;;;;;;;;;;;4994319;28;19914;-22
2023/03/20 10:30:29;;;;;;;;;;;;;;;;;;4977324;28;19953;-22
2023/03/20 10:32:55;;;;;;;;;;;;;;;;;;4994414;28;19938;-22
2023/03/20 10:35:21;;;;;;;;;;;;;;;;;;4994447;28;19910;-22
2023/03/20 10:37:47;;;;;;;;;;;;;;;;;;4994434;28;20005;-22
2023/03/20 10:40:13;;;;;;;;;;;;;;;;;;4996442;28;19926;-25
2023/03/20 10:42:39;;;;;;;;;;;;;;;;;;4998042;28;19917;-22
2023/03/20 10:45:05;;;;;;;;;;;;;;;;;;4998061;28;19910;-22
2023/03/20 10:47:31;;;;;;;;;;;;;;;;;;4998315;28;19921;-22
2023/03/20 10:49:57;;;;;;;;;;;;;;;;;;4998291;28;19968;-22
2023/03/20 10:52:23;;;;;;;;;;;;;;;;;;4998214;28;20020;-22
2023/03/20 10:54:49;;;;;;;;;;;;;;;;;;4997925;28;20000;-22
2023/03/20 10:57:15;;;;;;;;;;;;;;;;;;4997860;28;19953;-22
2023/03/20 10:59:41;;;;;;;;;;;;;;;;;;4997621;28;19920;-22
2023/03/20 11:02:07;;;;;;;;;;;;;;;;;;4997446;28;19910;-22
2023/03/20 11:04:33;;;;;;;;;;;;;;;;;;4997601;28;19925;-22
2023/03/20 11:07:00;;;;;;;;;;;;;;;;;;4997799;28;19909;-23
2023/03/20 11:09:28;;;;;;;;;;;;;;;;;;4997561;28;19971;-22
2023/03/20 11:11:54;;;;;;;;;;;;;;;;;;4997443;28;19910;-22
2023/03/20 11:14:21;;;;;;;;;;;;;;;;;;4997618;28;19917;-22
2023/03/20 11:16:48;;;;;;;;;;;;;;;;;;4997412;28;19917;-22
2023/03/20 11:19:14;;;;;;;;;;;;;;;;;;4997382;28;19917;-22
2023/03/20 11:21:40;;;;;;;;;;;;;;;;;;4997645;28;19910;-22
2023/03/20 11:24:06;;;;;;;;;;;;;;;;;;4997093;28;20033;-23
2023/03/20 11:26:32;;;;;;;;;;;;;;;;;;4997420;28;20361;-22
2023/03/20 11:28:58;;;;;;;;;;;;;;;;;;4997147;28;20017;-22
2023/03/20 11:31:24;;;;;;;;;;;;;;;;;;4997205;28;19953;-22
2023/03/20 11:33:50;;;;;;;;;;;;;;;;;;4997146;28;20312;-22
2023/03/20 11:36:16;;;;;;;;;;;;;;;;;;4997066;28;19952;-22
2023/03/20 11:38:42;;;;;;;;;;;;;;;;;;4979699;28;19964;-22
2023/03/20 11:41:08;;;;;;;;;;;;;;;;;;4996868;28;19917;-23
2023/03/20 11:43:34;;;;;;;;;;;;;;;;;;4996509;28;19988;-22
2023/03/20 11:46:03;;;;;;;;;;;;;;;;;;4996608;28;19917;-24
2023/03/20 11:48:29;;;;;;;;;;;;;;;;;;4996931;28;19914;-23
2023/03/20 11:50:55;;;;;;;;;;;;;;;;;;4996213;28;19920;-23
2023/03/20 11:53:21;;;;;;;;;;;;;;;;;;4996845;28;20000;-22
2023/03/20 11:55:47;;;;;;;;;;;;;;;;;;4996535;28;19917;-23
2023/03/20 11:58:13;;;;;;;;;;;;;;;;;;4996203;28;19910;-22
2023/03/20 12:00:39;;;;;;;;;;;;;;;;;;4995853;28;20002;-22
2023/03/20 12:03:05;;;;;;;;;;;;;;;;;;4995826;28;19922;-22
2023/03/20 12:05:31;;;;;;;;;;;;;;;;;;4995987;28;19910;-23
2023/03/20 12:07:57;;;;;;;;;;;;;;;;;;4995935;28;19914;-23
2023/03/20 12:10:23;;;;;;;;;;;;;;;;;;4996283;28;20352;-22
2023/03/20 12:12:49;;;;;;;;;;;;;;;;;;4995748;28;20294;-22
2023/03/20 12:15:15;;;;;;;;;;;;;;;;;;4996058;28;19909;-23
2023/03/20 12:17:41;;;;;;;;;;;;;;;;;;4978502;28;19936;-23
2023/03/20 12:20:07;;;;;;;;;;;;;;;;;;4996074;28;19910;-22
2023/03/20 12:22:33;;;;;;;;;;;;;;;;;;4995752;28;19914;-23
2023/03/20 12:24:59;;;;;;;;;;;;;;;;;;4995883;28;19924;-22
2023/03/20 12:27:25;;;;;;;;;;;;;;;;;;4995659;28;19917;-24
2023/03/20 12:29:51;;;;;;;;;;;;;;;;;;4995784;28;20359;-22
2023/03/20 12:32:17;;;;;;;;;;;;;;;;;;4995834;28;20009;-20
2023/03/20 12:34:45;;;;;;;;;;;;;;;;;;4996451;28;20349;-20
2023/03/20 12:37:12;;;;;;;;;;;;;;;;;;4996199;28;19941;-21
2023/03/20 12:39:40;;;;;;;;;;;;;;;;;;4996614;28;19909;-20
2023/03/20 12:42:07;;;;;;;;;;;;;;;;;;4996091;28;19992;-21
2023/03/20 12:44:33;;;;;;;;;;;;;;;;;;4978818;28;19910;-21
2023/03/20 12:46:59;;;;;;;;;;;;;;;;;;4995749;28;19909;-20
2023/03/20 12:49:25;;;;;;;;;;;;;;;;;;4995967;28;20229;-20
2023/03/20 12:51:51;;;;;;;;;;;;;;;;;;4995783;28;19909;-20
2023/03/20 12:54:17;;;;;;;;;;;;;;;;;;4995853;28;19916;-22
2023/03/20 12:56:43;;;;;;;;;;;;;;;;;;4995620;28;19957;-21
2023/03/20 12:59:09;;;;;;;;;;;;;;;;;;4995547;28;20072;-21
2023/03/20 13:01:35;;;;;;;;;;;;;;;;;;4995047;28;19933;-21
2023/03/20 13:04:01;;;;;;;;;;;;;;;;;;4994759;28;19922;-21
2023/03/20 13:06:27;;;;;;;;;;;;;;;;;;4995145;28;19980;-20
2023/03/20 13:08:53;;;;;;;;;;;;;;;;;;4977720;28;20009;-21
2023/03/20 13:11:19;;;;;;;;;;;;;;;;;;4995069;28;19934;-20
2023/03/20 13:13:45;;;;;;;;;;;;;;;;;;4995143;28;19910;-20
2023/03/20 13:16:11;;;;;;;;;;;;;;;;;;4995477;28;19910;-22
2023/03/20 13:18:37;;;;;;;;;;;;;;;;;;4995128;28;19910;-21
2023/03/20 13:21:03;;;;;;;;;;;;;;;;;;4995450;28;20364;-20
2023/03/20 13:23:29;;;;;;;;;;;;;;;;;;4995174;28;19921;-23
2023/03/20 13:25:55;;;;;;;;;;;;;;;;;;4995419;28;19909;-23
2023/03/20 13:28:21;;;;;;;;;;;;;;;;;;4995045;28;20012;-24
2023/03/20 13:30:47;;;;;;;;;;;;;;;;;;4978576;28;20000;-21
2023/03/20 13:33:13;;;;;;;;;;;;;;;;;;4995140;28;19921;-21
2023/03/20 13:35:39;;;;;;;;;;;;;;;;;;4995135;28;19910;-21
2023/03/20 13:38:05;;;;;;;;;;;;;;;;;;4995279;28;20293;-20
2023/03/20 13:40:31;;;;;;;;;;;;;;;;;;4995436;28;19910;-20
2023/03/20 13:42:57;;;;;;;;;;;;;;;;;;4994891;28;20052;-21
2023/03/20 13:45:23;;;;;;;;;;;;;;;;;;4994873;28;19920;-20
2023/03/20 13:47:50;;;;;;;;;;;;;;;;;;4994678;28;20344;-21
2023/03/20 13:50:15;;;;;;;;;;;;;;;;;;4994632;28;19910;-20
2023/03/20 13:52:41;;;;;;;;;;;;;;;;;;4994617;28;19920;-22
2023/03/20 13:55:10;;;;;;;;;;;;;;;;;;4994527;28;19909;-21
2023/03/20 13:57:36;;;;;;;;;;;;;;;;;;4994534;28;20229;-25
2023/03/20 14:00:03;;;;;;;;;;;;;;;;;;4994572;28;20000;-21
2023/03/20 14:02:29;;;;;;;;;;;;;;;;;;4977040;28;19968;-21
2023/03/20 14:04:55;;;;;;;;;;;;;;;;;;4994937;28;19913;-22
2023/03/20 14:07:21;;;;;;;;;;;;;;;;;;4994954;28;20313;-24
2023/03/20 14:09:47;;;;;;;;;;;;;;;;;;4995155;28;20312;-24
2023/03/20 14:12:13;;;;;;;;;;;;;;;;;;4994562;28;20249;-20
2023/03/20 14:14:40;;;;;;;;;;;;;;;;;;4997545;28;19979;-20
2023/03/20 14:17:07;;;;;;;;;;;;;;;;;;4998235;28;20017;-20
2023/03/20 14:19:33;;;;;;;;;;;;;;;;;;4981235;28;19914;-21
2023/03/20 14:21:59;;;;;;;;;;;;;;;;;;4998447;28;19921;-21
2023/03/20 14:24:26;;;;;;;;;;;;;;;;;;4998492;28;19909;-22
2023/03/20 14:26:52;;;;;;;;;;;;;;;;;;4998497;28;19975;-20
2023/03/20 14:29:18;;;;;;;;;;;;;;;;;;4998605;28;19949;-21
2023/03/20 14:31:44;;;;;;;;;;;;;;;;;;4998528;28;19941;-23
2023/03/20 14:34:10;;;;;;;;;;;;;;;;;;4998744;28;19972;-22
2023/03/20 14:36:36;;;;;;;;;;;;;;;;;;4998279;28;19910;-20
2023/03/20 14:39:02;;;;;;;;;;;;;;;;;;4980843;28;20411;-23
2023/03/20 14:41:28;;;;;;;;;;;;;;;;;;4998119;28;19909;-20
2023/03/20 14:43:57;;;;;;;;;;;;;;;;;;4980856;28;19909;-20
2023/03/20 14:46:24;;;;;;;;;;;;;;;;;;4998468;28;19913;-21
2023/03/20 14:48:50;;;;;;;;;;;;;;;;;;4997825;28;19914;-21
2023/03/20 14:51:16;;;;;;;;;;;;;;;;;;4997781;28;19910;-23
2023/03/20 14:53:42;;;;;;;;;;;;;;;;;;4998205;28;19910;-20
2023/03/20 14:56:08;;;;;;;;;;;;;;;;;;4997808;28;19910;-20
2023/03/20 14:58:34;;;;;;;;;;;;;;;;;;4980246;28;19921;-23
2023/03/20 15:01:01;;;;;;;;;;;;;;;;;;4997762;28;20241;-21
2023/03/20 15:03:27;;;;;;;;;;;;;;;;;;4997322;28;19965;-20
2023/03/20 15:05:52;;;;;;;;;;;;;;;;;;4997531;28;20422;-21
2023/03/20 15:08:19;;;;;;;;;;;;;;;;;;4997360;28;19914;-20
2023/03/20 15:10:45;;;;;;;;;;;;;;;;;;4980207;28;19921;-20
2023/03/20 15:13:11;;;;;;;;;;;;;;;;;;4997656;28;19914;-21
2023/03/20 15:15:37;;;;;;;;;;;;;;;;;;4997516;28;19933;-19
2023/03/20 15:18:03;;;;;;;;;;;;;;;;;;4980136;28;19964;-23
2023/03/20 15:20:29;;;;;;;;;;;;;;;;;;4997299;28;19910;-21
2023/03/20 15:22:55;;;;;;;;;;;;;;;;;;4997380;28;20332;-25
2023/03/20 15:25:21;;;;;;;;;;;;;;;;;;4996806;28;19936;-21
2023/03/20 15:27:47;;;;;;;;;;;;;;;;;;4997920;28;19914;-23
2023/03/20 15:30:13;;;;;;;;;;;;;;;;;;4997137;28;19924;-21
2023/03/20 15:32:40;;;;;;;;;;;;;;;;;;4996916;28;19910;-21
2023/03/20 15:35:07;;;;;;;;;;;;;;;;;;4996877;28;19922;-20
2023/03/20 15:37:33;;;;;;;;;;;;;;;;;;4997078;28;19909;-23
2023/03/20 15:39:59;;;;;;;;;;;;;;;;;;4997071;28;19918;-23
2023/03/20 15:42:25;;;;;;;;;;;;;;;;;;4996867;28;19910;-20
2023/03/20 15:44:51;;;;;;;;;;;;;;;;;;4979609;28;20413;-21
2023/03/20 15:47:19;;;;;;;;;;;;;;;;;;4979538;28;19953;-21
2023/03/20 15:49:45;;;;;;;;;;;;;;;;;;4979412;28;19924;-20
2023/03/20 15:52:11;;;;;;;;;;;;;;;;;;4996787;28;19910;-20
2023/03/20 15:54:37;;;;;;;;;;;;;;;;;;4996867;28;19910;-20
2023/03/20 15:57:04;;;;;;;;;;;;;;;;;;4996588;28;20084;-21
2023/03/20 15:59:30;;;;;;;;;;;;;;;;;;4996474;28;20318;-21
2023/03/20 16:01:56;;;;;;;;;;;;;;;;;;4996503;28;19993;-21
2023/03/20 16:04:22;;;;;;;;;;;;;;;;;;4976000;28;19922;-20
2023/03/20 16:06:48;;;;;;;;;;;;;;;;;;4977092;28;19942;-20
2023/03/20 16:09:16;;;;;;;;;;;;;;;;;;4976546;28;20315;-22
2023/03/20 16:11:42;;;;;;;;;;;;;;;;;;4975917;28;19914;-22
2023/03/20 16:14:08;;;;;;;;;;;;;;;;;;4976600;28;19910;-21
2023/03/20 16:16:36;;;;;;;;;;;;;;;;;;4976023;28;19924;-22
2023/03/20 16:19:02;;;;;;;;;;;;;;;;;;4976019;28;19965;-23
2023/03/20 16:21:28;;;;;;;;;;;;;;;;;;4976153;28;20282;-22
2023/03/20 16:23:54;;;;;;;;;;;;;;;;;;4976137;28;19914;-22
2023/03/20 16:26:20;;;;;;;;;;;;;;;;;;4976004;28;19910;-21
2023/03/20 16:28:46;;;;;;;;;;;;;;;;;;4975758;28;20021;-21
2023/03/20 16:31:11;;;;;;;;;;;;;;;;;;4976041;28;19926;-21
2023/03/20 16:33:37;;;;;;;;;;;;;;;;;;4975714;28;19914;-21
2023/03/20 16:36:03;;;;;;;;;;;;;;;;;;4975960;28;19914;-22
2023/03/20 16:38:29;;;;;;;;;;;;;;;;;;4975709;28;19984;-21
2023/03/20 16:40:57;;;;;;;;;;;;;;;;;;4976149;28;19997;-22